Time;durP1;ratioP1;P1;durP2;ratioP2;P2;SDS_P1;SDS_P2;PMS_P1;PMS_P2;Temp;Humidity;BMP_temperature;BMP_pressure;BME280_temperature;BME280_humidity;BME280_pressure;Samples;Min_cycle;Max_cycle;Signal;HPM_P1;HPM_P2
2023/03/16 00:00:23;;;;;;;17.52;11.75;;;;;;;0.73;98.31;95883.72;4952097;28;20051;-64
2023/03/16 00:02:48;;;;;;;17.38;12.57;;;;;;;0.72;97.96;95884.63;4948747;28;20107;-64
2023/03/16 00:05:14;;;;;;;15.43;11.75;;;;;;;0.69;98.52;95885.63;4949540;28;20045;-64
2023/03/16 00:07:41;;;;;;;13.35;10.75;;;;;;;0.67;98.66;95887.47;4955593;28;20086;-64
2023/03/16 00:10:07;;;;;;;13.55;10.05;;;;;;;0.66;99.72;95887.53;4954684;28;20425;-64
2023/03/16 00:12:33;;;;;;;12.90;10.05;;;;;;;0.63;100.00;95885.91;4957283;28;20598;-64
2023/03/16 00:14:59;;;;;;;12.20;8.68;;;;;;;0.62;99.50;95892.00;4958014;28;20069;-64
2023/03/16 00:17:25;;;;;;;13.27;10.57;;;;;;;0.59;99.09;95894.75;4956003;28;20031;-64
2023/03/16 00:19:55;;;;;;;13.77;9.65;;;;;;;0.58;99.33;95903.44;4950611;28;20096;-64
2023/03/16 00:22:29;;;;;;;11.98;8.48;;;;;;;0.51;100.00;95899.50;4956713;28;20044;-64
2023/03/16 00:24:55;;;;;;;13.57;7.60;;;;;;;0.49;100.00;95901.31;4955071;28;20031;-64
2023/03/16 00:27:23;;;;;;;9.82;7.72;;;;;;;0.51;99.24;95897.72;4955663;28;20323;-64
2023/03/16 00:29:54;;;;;;;12.10;7.60;;;;;;;0.49;100.00;95903.91;4950526;28;20507;-64
2023/03/16 00:32:32;;;;;;;9.45;7.13;;;;;;;0.46;100.00;95898.88;4946197;28;20070;-64
2023/03/16 00:34:57;;;;;;;7.40;6.05;;;;;;;0.42;100.00;95904.19;4946356;28;20035;-64
2023/03/16 00:37:25;;;;;;;7.95;5.00;;;;;;;0.45;100.00;95898.03;4949838;28;20539;-64
2023/03/16 00:39:51;;;;;;;5.97;5.18;;;;;;;0.47;99.88;95898.78;4948973;28;20495;-64
2023/03/16 00:42:17;;;;;;;5.60;4.95;;;;;;;0.43;100.00;95900.69;4949482;28;20614;-64
2023/03/16 00:44:43;;;;;;;6.70;5.00;;;;;;;0.38;100.00;95901.84;4952013;28;20217;-64
2023/03/16 00:47:13;;;;;;;6.53;5.07;;;;;;;0.31;100.00;95906.47;4948969;28;20123;-64
2023/03/16 00:49:41;;;;;;;5.63;4.32;;;;;;;0.28;100.00;95902.28;4946766;28;20126;-64
2023/03/16 00:52:08;;;;;;;4.88;4.47;;;;;;;0.26;100.00;95888.56;4930615;29;20066;-64
2023/03/16 00:54:33;;;;;;;8.73;4.50;;;;;;;0.27;100.00;95892.81;4947651;28;20086;-64
2023/03/16 00:57:00;;;;;;;4.55;4.13;;;;;;;0.27;100.00;95890.22;4951321;28;20023;-64
2023/03/16 00:59:25;;;;;;;4.50;4.10;;;;;;;0.27;100.00;95882.47;4956027;28;20188;-64
2023/03/16 01:01:54;;;;;;;6.57;4.78;;;;;;;0.25;100.00;95881.69;4954727;28;20058;-64
2023/03/16 01:04:20;;;;;;;7.25;5.35;;;;;;;0.23;100.00;95880.94;4955280;28;20028;-64
2023/03/16 01:06:46;;;;;;;7.03;5.45;;;;;;;0.21;100.00;95872.41;4954222;28;20031;-64
2023/03/16 01:09:13;;;;;;;6.28;5.40;;;;;;;0.22;100.00;95865.47;4950403;28;20031;-64
2023/03/16 01:11:41;;;;;;;8.85;6.63;;;;;;;0.17;100.00;95872.63;4950372;28;20054;-64
2023/03/16 01:14:07;;;;;;;7.85;6.28;;;;;;;0.25;100.00;95876.53;4951142;28;20444;-64
2023/03/16 01:16:33;;;;;;;7.63;5.68;;;;;;;0.24;100.00;95880.03;4955326;28;20404;-64
2023/03/16 01:18:58;;;;;;;7.05;5.70;;;;;;;0.23;100.00;95872.34;4954989;28;20034;-64
2023/03/16 01:21:24;;;;;;;7.32;5.63;;;;;;;0.25;100.00;95879.13;4954998;28;20023;-64
2023/03/16 01:23:51;;;;;;;6.93;6.18;;;;;;;0.16;100.00;95879.56;4954495;28;20030;-64
2023/03/16 01:26:17;;;;;;;5.47;4.97;;;;;;;0.09;100.00;95873.84;4953571;28;20031;-64
2023/03/16 01:28:43;;;;;;;7.70;4.90;;;;;;;0.06;100.00;95874.00;4955376;28;20035;-64
2023/03/16 01:31:13;;;;;;;4.97;4.50;;;;;;;0.05;100.00;95867.13;4957198;28;20050;-64
2023/03/16 01:33:39;;;;;;;5.93;4.57;;;;;;;0.10;100.00;95867.75;4954921;28;20041;-64
2023/03/16 01:36:08;;;;;;;4.38;4.00;;;;;;;0.22;100.00;95871.50;4957466;28;20116;-64
2023/03/16 01:38:34;;;;;;;4.90;4.35;;;;;;;0.23;100.00;95873.19;4956696;28;20079;-64
2023/03/16 01:41:00;;;;;;;5.00;3.83;;;;;;;0.25;99.90;95873.13;4957321;28;20027;-63
2023/03/16 01:43:28;;;;;;;4.35;3.78;;;;;;;0.23;100.00;95865.41;4953682;28;20019;-64
2023/03/16 01:46:05;;;;;;;4.05;3.75;;;;;;;0.20;100.00;95862.13;4952437;28;20071;-64
2023/03/16 01:48:45;;;;;;;3.83;3.53;;;;;;;0.11;100.00;95858.22;4957245;28;20029;-64
2023/03/16 01:51:30;;;;;;;4.30;3.60;;;;;;;0.08;100.00;95854.03;4951981;28;20114;-64
2023/03/16 01:54:01;;;;;;;4.80;3.38;;;;;;;0.11;100.00;95850.44;4956145;28;20457;-64
2023/03/16 01:56:42;;;;;;;4.25;3.70;;;;;;;0.10;100.00;95856.53;4934307;29;20102;-64
2023/03/16 01:59:13;;;;;;;5.43;4.00;;;;;;;0.12;100.00;95855.56;4952778;28;20413;-64
2023/03/16 02:01:38;;;;;;;4.38;3.67;;;;;;;0.17;100.00;95847.59;4956445;28;20020;-63
2023/03/16 02:04:21;;;;;;;6.88;2.97;;;;;;;0.20;100.00;95842.25;4950112;28;20383;-64
2023/03/16 02:06:47;;;;;;;3.67;2.80;;;;;;;0.24;100.00;95828.22;4954890;28;20037;-64
2023/03/16 02:09:14;;;;;;;3.20;3.00;;;;;;;0.16;100.00;95825.19;4945857;28;20101;-64
2023/03/16 02:11:40;;;;;;;3.63;3.33;;;;;;;0.10;100.00;95821.16;4954687;28;20049;-64
2023/03/16 02:14:10;;;;;;;3.67;3.38;;;;;;;0.07;100.00;95821.28;4951345;28;20019;-64
2023/03/16 02:16:37;;;;;;;3.38;3.08;;;;;;;0.09;100.00;95826.38;4952641;28;20026;-64
2023/03/16 02:19:05;;;;;;;2.95;2.70;;;;;;;0.14;100.00;95811.47;4955304;28;20202;-64
2023/03/16 02:21:56;;;;;;;3.72;3.30;;;;;;;0.05;100.00;95817.94;4950902;28;20023;-64
2023/03/16 02:24:22;;;;;;;3.20;2.72;;;;;;;0.00;100.00;95814.75;4952476;28;20032;-63
2023/03/16 02:27:43;;;;;;;3.40;2.90;;;;;;;-0.05;100.00;95811.53;4952026;28;20023;-64
2023/03/16 02:30:15;;;;;;;3.95;3.00;;;;;;;-0.10;100.00;95824.69;4892379;29;20126;-64
2023/03/16 02:32:43;;;;;;;3.40;3.17;;;;;;;-0.10;100.00;95821.25;4952933;28;20444;-64
2023/03/16 02:35:09;;;;;;;3.58;3.25;;;;;;;-0.12;100.00;95810.97;4953722;28;20038;-64
2023/03/16 02:37:35;;;;;;;2.85;2.65;;;;;;;-0.09;100.00;95821.22;4952037;28;20031;-64
2023/03/16 02:40:08;;;;;;;3.13;2.78;;;;;;;-0.08;100.00;95825.47;4954685;28;20038;-64
2023/03/16 02:42:34;;;;;;;6.20;2.67;;;;;;;-0.08;100.00;95827.19;4953353;28;20057;-64
2023/03/16 02:45:00;;;;;;;2.88;2.67;;;;;;;-0.11;100.00;95823.03;4950348;28;20097;-63
2023/03/16 02:47:40;;;;;;;2.67;2.47;;;;;;;-0.10;100.00;95829.88;4953623;28;20364;-64
2023/03/16 02:50:06;;;;;;;3.17;2.90;;;;;;;-0.16;100.00;95828.41;4954803;28;20023;-64
2023/03/16 02:52:34;;;;;;;3.20;3.00;;;;;;;-0.16;100.00;95836.19;4952394;28;20031;-63
2023/03/16 02:54:59;;;;;;;3.53;2.80;;;;;;;-0.21;100.00;95842.47;4951388;28;20031;-64
2023/03/16 02:57:25;;;;;;;2.83;2.63;;;;;;;-0.25;100.00;95835.78;4953199;28;20039;-63
2023/03/16 02:59:50;;;;;;;3.33;3.00;;;;;;;-0.20;100.00;95850.19;4936979;29;20062;-63
2023/03/16 03:02:16;;;;;;;4.95;3.40;;;;;;;-0.14;100.00;95849.03;4954690;28;20023;-63
2023/03/16 03:04:45;;;;;;;4.25;3.83;;;;;;;-0.17;100.00;95854.34;4955236;28;20045;-64
2023/03/16 03:07:13;;;;;;;11.43;5.88;;;;;;;-0.17;100.00;95855.22;4951367;28;20042;-64
2023/03/16 03:09:41;;;;;;;5.47;4.88;;;;;;;-0.20;100.00;95849.31;4954669;28;20043;-64
2023/03/16 03:12:08;;;;;;;5.85;5.32;;;;;;;-0.25;100.00;95846.13;4950510;28;20031;-64
2023/03/16 03:14:37;;;;;;;4.18;3.72;;;;;;;-0.35;100.00;95861.22;4948338;28;20561;-64
2023/03/16 03:17:06;;;;;;;4.50;4.10;;;;;;;-0.41;100.00;95853.75;4952814;28;20030;-64
2023/03/16 03:19:33;;;;;;;5.30;4.18;;;;;;;-0.41;100.00;95848.59;4953239;28;20118;-65
2023/03/16 03:22:02;;;;;;;4.88;4.38;;;;;;;-0.44;100.00;95855.59;4948360;28;20103;-64
2023/03/16 03:24:28;;;;;;;7.25;4.47;;;;;;;-0.44;100.00;95868.53;4955421;28;20101;-64
2023/03/16 03:26:53;;;;;;;7.13;4.15;;;;;;;-0.44;100.00;95872.84;4952680;28;21203;-64
2023/03/16 03:29:19;;;;;;;3.70;3.08;;;;;;;-0.45;100.00;95860.81;4951289;28;20039;-64
2023/03/16 03:31:45;;;;;;;3.13;2.92;;;;;;;-0.47;100.00;95865.22;4950484;28;20034;-64
2023/03/16 03:34:10;;;;;;;5.55;4.25;;;;;;;-0.56;100.00;95861.31;4951161;28;20038;-64
2023/03/16 03:36:36;;;;;;;5.90;5.30;;;;;;;-0.53;100.00;95861.16;4952350;28;20108;-64
2023/03/16 03:39:03;;;;;;;7.82;5.93;;;;;;;-0.55;100.00;95862.97;4950280;28;20031;-64
2023/03/16 03:41:30;;;;;;;5.55;5.05;;;;;;;-0.49;100.00;95867.88;4952635;28;20050;-64
2023/03/16 03:43:55;;;;;;;3.80;3.45;;;;;;;-0.45;100.00;95872.00;4951442;28;20090;-64
2023/03/16 03:46:21;;;;;;;6.10;4.00;;;;;;;-0.44;100.00;95867.66;4952988;28;20444;-63
2023/03/16 03:48:46;;;;;;;4.93;3.72;;;;;;;-0.45;100.00;95866.00;4953071;28;20098;-63
2023/03/16 03:51:11;;;;;;;3.60;3.30;;;;;;;-0.42;100.00;95867.63;4951578;28;20062;-64
2023/03/16 03:53:37;;;;;;;3.42;2.97;;;;;;;-0.35;100.00;95859.47;4953121;28;20030;-64
2023/03/16 03:56:02;;;;;;;3.25;3.05;;;;;;;-0.38;100.00;95848.44;4955015;28;20050;-64
2023/03/16 03:58:28;;;;;;;4.15;2.72;;;;;;;-0.47;100.00;95827.25;4951586;28;20015;-64
2023/03/16 04:00:53;;;;;;;2.63;2.53;;;;;;;-0.46;100.00;95828.91;4951095;28;20142;-64
2023/03/16 04:03:19;;;;;;;2.80;2.55;;;;;;;-0.44;100.00;95815.94;4956724;28;20035;-64
2023/03/16 04:05:44;;;;;;;3.50;3.20;;;;;;;-0.45;100.00;95802.16;4957020;28;20034;-64
2023/03/16 04:08:10;;;;;;;3.30;2.90;;;;;;;-0.44;100.00;95795.25;4951271;28;20039;-64
2023/03/16 04:10:35;;;;;;;6.43;2.92;;;;;;;-0.48;100.00;95791.13;4946778;28;20811;-64
2023/03/16 04:13:01;;;;;;;4.00;2.80;;;;;;;-0.28;100.00;95789.34;4952936;28;20395;-64
2023/03/16 04:15:26;;;;;;;3.20;2.60;;;;;;;-0.27;100.00;95780.66;4951083;28;20034;-64
2023/03/16 04:17:52;;;;;;;6.25;5.75;;;;;;;-0.35;100.00;95784.44;4951831;28;20413;-64
2023/03/16 04:20:18;;;;;;;4.93;3.70;;;;;;;-0.27;100.00;95783.25;4953062;28;20110;-63
2023/03/16 04:22:48;;;;;;;5.47;3.70;;;;;;;-0.28;100.00;95782.41;4948364;28;20428;-64
2023/03/16 04:25:16;;;;;;;3.55;3.22;;;;;;;-0.30;100.00;95789.41;4946198;28;20031;-63
2023/03/16 04:27:42;;;;;;;3.42;3.22;;;;;;;-0.24;100.00;95793.47;4946674;28;20048;-64
2023/03/16 04:30:11;;;;;;;4.05;3.72;;;;;;;-0.24;100.00;95790.88;4954965;28;20019;-63
2023/03/16 04:32:37;;;;;;;3.85;3.40;;;;;;;-0.27;100.00;95793.59;4953062;28;20067;-64
2023/03/16 04:35:03;;;;;;;3.78;3.15;;;;;;;-0.23;100.00;95795.94;4950218;28;20095;-64
2023/03/16 04:37:29;;;;;;;4.70;3.80;;;;;;;-0.19;100.00;95805.28;4951915;28;20035;-64
2023/03/16 04:39:54;;;;;;;5.60;3.60;;;;;;;-0.22;100.00;95810.59;4954757;28;20033;-64
2023/03/16 04:42:20;;;;;;;10.05;3.70;;;;;;;-0.26;100.00;95803.88;4953722;28;20527;-64
2023/03/16 04:44:46;;;;;;;3.17;2.97;;;;;;;-0.31;100.00;95809.28;4952750;28;20030;-64
2023/03/16 04:47:13;;;;;;;3.30;3.10;;;;;;;-0.34;100.00;95819.75;4952640;28;20031;-63
2023/03/16 04:49:39;;;;;;;4.47;3.17;;;;;;;-0.37;100.00;95821.66;4955247;28;20091;-64
2023/03/16 04:52:06;;;;;;;4.35;3.20;;;;;;;-0.41;100.00;95810.59;4949238;28;20027;-64
2023/03/16 04:54:32;;;;;;;4.65;3.20;;;;;;;-0.41;100.00;95815.78;4955952;28;20087;-64
2023/03/16 04:56:59;;;;;;;3.50;3.17;;;;;;;-0.37;100.00;95817.31;4952068;28;20038;-64
2023/03/16 04:59:25;;;;;;;3.40;3.10;;;;;;;-0.29;100.00;95816.97;4949650;28;20111;-64
2023/03/16 05:01:50;;;;;;;3.65;3.20;;;;;;;-0.33;100.00;95818.88;4955760;28;20591;-64
2023/03/16 05:04:15;;;;;;;3.42;2.78;;;;;;;-0.42;100.00;95821.03;4956893;28;20043;-64
2023/03/16 05:06:41;;;;;;;3.25;3.03;;;;;;;-0.44;100.00;95821.09;4952734;28;20047;-65
2023/03/16 05:09:07;;;;;;;3.65;3.10;;;;;;;-0.48;100.00;95819.56;4954645;28;20027;-65
2023/03/16 05:11:36;;;;;;;3.63;3.33;;;;;;;-0.53;100.00;95819.78;4958638;28;20020;-65
2023/03/16 05:14:01;;;;;;;4.80;4.10;;;;;;;-0.42;100.00;95824.44;4951694;28;20381;-65
2023/03/16 05:16:28;;;;;;;4.20;3.90;;;;;;;-0.48;100.00;95825.56;4959880;28;20098;-64
2023/03/16 05:18:57;;;;;;;3.67;3.42;;;;;;;-0.56;100.00;95824.25;4952704;28;20535;-65
2023/03/16 05:21:23;;;;;;;4.30;4.00;;;;;;;-0.61;100.00;95824.47;4957908;28;20023;-65
2023/03/16 05:23:48;;;;;;;3.90;3.60;;;;;;;-0.64;100.00;95829.78;4964225;28;20033;-65
2023/03/16 05:26:14;;;;;;;4.82;4.43;;;;;;;-0.70;100.00;95820.56;4950321;28;20047;-66
2023/03/16 05:28:41;;;;;;;5.50;5.00;;;;;;;-0.73;100.00;95838.81;4953041;28;20034;-65
2023/03/16 05:31:07;;;;;;;5.45;5.05;;;;;;;-0.73;100.00;95841.38;4946270;28;20035;-65
2023/03/16 05:33:32;;;;;;;5.85;5.40;;;;;;;-0.67;100.00;95843.69;4953227;28;20389;-65
2023/03/16 05:35:57;;;;;;;6.38;5.78;;;;;;;-0.67;100.00;95829.91;4957040;28;20149;-65
2023/03/16 05:38:24;;;;;;;7.63;5.60;;;;;;;-0.68;100.00;95831.66;4956691;28;20106;-65
2023/03/16 05:40:53;;;;;;;6.55;5.95;;;;;;;-0.66;100.00;95831.63;4952688;28;20118;-65
2023/03/16 05:43:20;;;;;;;6.28;5.88;;;;;;;-0.69;100.00;95840.34;4957559;28;20030;-65
2023/03/16 05:45:45;;;;;;;7.15;6.50;;;;;;;-0.72;100.00;95835.31;4948624;28;20054;-65
2023/03/16 05:48:11;;;;;;;7.10;6.50;;;;;;;-0.69;100.00;95836.91;4954755;28;20023;-66
2023/03/16 05:50:36;;;;;;;7.60;6.63;;;;;;;-0.63;100.00;95832.28;4956327;28;20055;-65
2023/03/16 05:53:03;;;;;;;6.68;6.07;;;;;;;-0.61;100.00;95829.66;4957858;28;20033;-65
2023/03/16 05:55:28;;;;;;;6.47;5.82;;;;;;;-0.58;100.00;95827.75;4954819;28;20031;-65
2023/03/16 05:57:54;;;;;;;6.05;5.50;;;;;;;-0.52;100.00;95825.81;4953653;28;20035;-65
2023/03/16 06:00:20;;;;;;;4.82;4.38;;;;;;;-0.48;100.00;95828.16;4933907;28;20058;-65
2023/03/16 06:02:48;;;;;;;7.38;4.38;;;;;;;-0.21;100.00;95824.38;4950787;28;20034;-65
2023/03/16 06:05:15;;;;;;;9.95;5.28;;;;;;;-0.17;100.00;95829.31;4955628;28;20019;-65
2023/03/16 06:07:40;;;;;;;4.53;4.10;;;;;;;-0.29;100.00;95837.66;4956454;28;20031;-65
2023/03/16 06:10:06;;;;;;;5.13;4.28;;;;;;;-0.24;100.00;95842.63;4955446;28;20090;-66
2023/03/16 06:12:33;;;;;;;5.50;4.50;;;;;;;-0.06;100.00;95841.75;4949345;28;20035;-66
2023/03/16 06:14:59;;;;;;;5.18;4.78;;;;;;;-0.20;100.00;95852.78;4955750;28;20073;-66
2023/03/16 06:17:25;;;;;;;5.35;4.85;;;;;;;-0.23;100.00;95854.66;4956037;28;20484;-66
2023/03/16 06:19:50;;;;;;;10.82;9.82;;;;;;;-0.21;100.00;95870.94;4948655;28;20063;-66
2023/03/16 06:22:17;;;;;;;7.97;6.68;;;;;;;-0.12;100.00;95865.31;4956982;28;20073;-66
2023/03/16 06:24:42;;;;;;;10.95;9.20;;;;;;;0.04;100.00;95869.78;4947078;28;20043;-66
2023/03/16 06:27:08;;;;;;;11.15;10.00;;;;;;;0.07;100.00;95857.53;4954931;28;20189;-66
2023/03/16 06:29:33;;;;;;;7.85;6.85;;;;;;;0.15;100.00;95857.19;4957306;28;20031;-66
2023/03/16 06:31:59;;;;;;;8.32;6.88;;;;;;;0.26;100.00;95862.66;4955359;28;20035;-66
2023/03/16 06:34:24;;;;;;;6.85;6.25;;;;;;;0.40;100.00;95850.81;4958269;28;20042;-66
2023/03/16 06:36:50;;;;;;;6.47;5.75;;;;;;;0.51;100.00;95845.09;4953854;28;20031;-66
2023/03/16 06:39:16;;;;;;;9.07;6.00;;;;;;;0.60;100.00;95843.78;4949765;28;20042;-66
2023/03/16 06:41:43;;;;;;;11.23;7.15;;;;;;;0.69;100.00;95838.13;4935601;29;20023;-66
2023/03/16 06:44:10;;;;;;;9.57;7.78;;;;;;;0.77;99.96;95835.16;4949250;28;20023;-66
2023/03/16 06:46:36;;;;;;;8.18;7.38;;;;;;;0.88;99.43;95837.19;4957306;28;20061;-66
2023/03/16 06:49:03;;;;;;;7.15;6.00;;;;;;;0.97;98.78;95832.38;4955681;28;20031;-66
2023/03/16 06:51:29;;;;;;;8.55;6.15;;;;;;;1.04;98.58;95829.47;4952248;28;20059;-67
2023/03/16 06:53:54;;;;;;;8.02;5.72;;;;;;;1.09;97.72;95828.31;4958956;28;20083;-66
2023/03/16 06:56:19;;;;;;;6.65;6.00;;;;;;;1.17;98.15;95833.09;4951896;28;20156;-67
2023/03/16 06:58:45;;;;;;;7.97;6.85;;;;;;;1.19;99.12;95825.22;4954703;28;20066;-66
2023/03/16 07:01:11;;;;;;;11.68;9.38;;;;;;;1.31;99.29;95826.31;4946567;28;20047;-65
2023/03/16 07:03:37;;;;;;;13.18;11.77;;;;;;;1.44;98.18;95832.53;4955942;28;20031;-64
2023/03/16 07:06:02;;;;;;;22.63;10.32;;;;;;;1.50;96.37;95834.81;4950467;28;20027;-65
2023/03/16 07:08:28;;;;;;;11.23;7.35;;;;;;;1.65;94.84;95832.31;4952022;28;20043;-64
2023/03/16 07:10:53;;;;;;;11.38;6.82;;;;;;;1.86;93.02;95832.88;4953420;28;20074;-64
2023/03/16 07:13:19;;;;;;;8.75;7.88;;;;;;;2.02;91.79;95829.44;4952243;28;20118;-64
2023/03/16 07:15:44;;;;;;;8.15;7.32;;;;;;;2.09;90.84;95826.41;4953874;28;20064;-63
2023/03/16 07:18:11;;;;;;;9.25;6.00;;;;;;;2.15;89.57;95826.06;4951108;28;20063;-64
2023/03/16 07:20:37;;;;;;;6.30;5.78;;;;;;;2.12;89.58;95831.41;4959904;28;20031;-65
2023/03/16 07:23:03;;;;;;;12.65;7.38;;;;;;;2.10;92.45;95822.03;4951089;28;20148;-65
2023/03/16 07:25:29;;;;;;;67.75;30.00;;;;;;;2.11;90.84;95826.34;4955712;28;20047;-66
2023/03/16 07:27:54;;;;;;;44.50;24.17;;;;;;;2.03;90.61;95821.56;4938096;29;20031;-66
2023/03/16 07:30:19;;;;;;;33.47;18.67;;;;;;;2.01;91.56;95820.81;4949733;28;20050;-65
2023/03/16 07:32:45;;;;;;;48.70;26.77;;;;;;;1.93;92.90;95826.44;4954079;28;20106;-65
2023/03/16 07:35:10;;;;;;;53.53;27.63;;;;;;;1.82;94.44;95828.78;4951051;28;20034;-65
2023/03/16 07:37:36;;;;;;;42.63;20.48;;;;;;;2.12;94.89;95828.81;4931840;29;20024;-66
2023/03/16 07:40:03;;;;;;;16.98;11.05;;;;;;;3.01;92.91;95824.56;4949786;28;20042;-66
2023/03/16 07:42:29;;;;;;;78.97;44.45;;;;;;;3.89;87.07;95822.72;4952224;28;20046;-67
2023/03/16 07:44:55;;;;;;;34.72;20.40;;;;;;;4.58;84.84;95822.63;4954690;28;20035;-67
2023/03/16 07:47:20;;;;;;;13.45;9.57;;;;;;;4.93;81.76;95831.63;4948650;28;20111;-66
2023/03/16 07:49:45;;;;;;;13.82;8.93;;;;;;;5.23;79.80;95833.06;4953150;28;20106;-66
2023/03/16 07:52:14;;;;;;;10.27;6.38;;;;;;;5.42;78.49;95837.03;4953511;28;20605;-67
2023/03/16 07:54:40;;;;;;;7.50;4.80;;;;;;;5.76;76.71;95841.66;4950473;28;20050;-66
2023/03/16 07:57:06;;;;;;;5.18;4.63;;;;;;;5.85;76.28;95838.38;4949028;28;20030;-66
2023/03/16 07:59:31;;;;;;;6.18;4.70;;;;;;;6.28;74.58;95835.31;4951828;28;20122;-67
2023/03/16 08:01:57;;;;;;;10.02;3.60;;;;;;;6.51;69.60;95824.13;4952310;28;20119;-67
2023/03/16 08:04:22;;;;;;;4.75;4.22;;;;;;;6.87;68.72;95824.97;4954738;28;20124;-67
2023/03/16 08:06:48;;;;;;;3.70;3.40;;;;;;;6.90;67.86;95823.88;4950913;28;20483;-67
2023/03/16 08:09:14;;;;;;;3.03;2.83;;;;;;;7.33;65.79;95817.97;4932610;28;20027;-67
2023/03/16 08:11:40;;;;;;;3.70;3.40;;;;;;;7.57;63.89;95824.88;4953734;28;20019;-66
2023/03/16 08:14:05;;;;;;;3.10;2.88;;;;;;;7.63;63.68;95820.97;4950727;28;20031;-66
2023/03/16 08:16:31;;;;;;;5.15;3.40;;;;;;;7.51;64.27;95823.56;4948574;28;20416;-67
2023/03/16 08:18:56;;;;;;;3.80;2.90;;;;;;;7.15;63.31;95828.91;4952711;28;20020;-67
2023/03/16 08:21:22;;;;;;;3.83;3.50;;;;;;;6.97;63.05;95831.16;4952225;28;20110;-66
2023/03/16 08:23:49;;;;;;;3.47;3.28;;;;;;;7.14;62.74;95831.66;4951283;28;20027;-66
2023/03/16 08:26:25;;;;;;;2.65;2.42;;;;;;;7.47;60.33;95826.56;4955048;28;20129;-66
2023/03/16 08:28:51;;;;;;;2.35;2.15;;;;;;;7.59;59.95;95830.84;4956390;28;20510;-66
2023/03/16 08:31:17;;;;;;;5.90;2.45;;;;;;;8.00;59.84;95833.78;4954935;28;20111;-66
2023/03/16 08:33:45;;;;;;;3.20;2.92;;;;;;;8.10;56.86;95833.88;4955659;28;20087;-66
2023/03/16 08:36:14;;;;;;;3.20;2.90;;;;;;;7.89;57.47;95834.63;4956930;28;20522;-66
2023/03/16 08:38:40;;;;;;;3.42;3.00;;;;;;;7.87;58.89;95824.25;4961694;28;20028;-66
2023/03/16 08:41:06;;;;;;;3.60;2.85;;;;;;;8.25;57.07;95830.00;4953112;28;20539;-66
2023/03/16 08:43:31;;;;;;;5.82;4.30;;;;;;;8.48;57.04;95834.34;4951979;28;20031;-66
2023/03/16 08:45:57;;;;;;;2.70;2.47;;;;;;;8.55;59.13;95832.91;4949996;28;20026;-66
2023/03/16 08:48:23;;;;;;;2.42;2.25;;;;;;;8.53;59.06;95825.19;4949851;28;20087;-67
2023/03/16 08:50:48;;;;;;;5.20;2.30;;;;;;;8.46;57.43;95837.09;4947301;28;20024;-66
2023/03/16 08:53:14;;;;;;;2.92;2.53;;;;;;;8.53;56.04;95833.06;4949738;28;20027;-66
2023/03/16 08:55:40;;;;;;;2.67;2.30;;;;;;;8.45;57.13;95838.03;4950958;28;20023;-66
2023/03/16 08:58:07;;;;;;;2.30;2.10;;;;;;;8.49;56.49;95836.84;4948778;28;20035;-66
2023/03/16 09:00:34;;;;;;;3.13;2.30;;;;;;;8.40;55.43;95829.72;4956008;28;20530;-65
2023/03/16 09:03:01;;;;;;;2.30;2.10;;;;;;;8.53;54.94;95827.81;4953602;28;20031;-66
2023/03/16 09:05:27;;;;;;;3.20;2.42;;;;;;;8.35;55.03;95829.28;4930534;28;20028;-66
2023/03/16 09:07:52;;;;;;;3.10;2.40;;;;;;;8.52;54.83;95826.16;4953356;28;20045;-67
2023/03/16 09:10:19;;;;;;;4.13;2.22;;;;;;;8.51;54.75;95818.38;4954469;28;20055;-66
2023/03/16 09:12:44;;;;;;;2.28;2.08;;;;;;;8.73;53.74;95830.56;4949899;28;20028;-66
2023/03/16 09:15:12;;;;;;;5.75;2.60;;;;;;;8.99;53.87;95820.50;4949224;28;20037;-66
2023/03/16 09:17:40;;;;;;;2.10;2.00;;;;;;;9.06;53.54;95826.09;4955603;28;20034;-66
2023/03/16 09:20:08;;;;;;;2.10;2.00;;;;;;;9.24;52.16;95823.69;4953112;28;20051;-66
2023/03/16 09:22:35;;;;;;;2.40;2.10;;;;;;;9.51;51.81;95821.47;4954024;28;20023;-67
2023/03/16 09:25:01;;;;;;;2.00;1.90;;;;;;;9.54;50.85;95821.19;4956644;28;20452;-67
2023/03/16 09:27:26;;;;;;;2.15;1.95;;;;;;;9.66;48.91;95822.78;4931581;29;20023;-67
2023/03/16 09:29:55;;;;;;;2.28;1.90;;;;;;;9.85;50.18;95823.81;4952943;28;20117;-67
2023/03/16 09:32:21;;;;;;;2.60;2.40;;;;;;;10.17;47.63;95820.13;4953691;28;20036;-67
2023/03/16 09:34:46;;;;;;;2.58;2.38;;;;;;;10.34;48.25;95821.25;4953390;28;20039;-66
2023/03/16 09:37:12;;;;;;;3.38;2.80;;;;;;;10.40;48.81;95825.13;4955839;28;20073;-67
2023/03/16 09:39:38;;;;;;;2.70;2.50;;;;;;;10.14;47.20;95813.34;4958182;28;20279;-67
2023/03/16 09:42:07;;;;;;;3.00;2.80;;;;;;;10.55;47.81;95802.75;4957474;28;20027;-67
2023/03/16 09:44:50;;;;;;;2.45;2.30;;;;;;;11.08;46.94;95808.47;4956146;28;20031;-67
2023/03/16 09:47:22;;;;;;;4.95;2.28;;;;;;;11.32;45.51;95796.63;4957277;28;20334;-67
2023/03/16 09:49:50;;;;;;;2.17;2.03;;;;;;;11.59;45.76;95797.63;4955065;28;20471;-67
2023/03/16 09:52:29;;;;;;;2.55;2.13;;;;;;;11.64;40.93;95795.41;4956164;28;20555;-67
2023/03/16 09:55:17;;;;;;;2.10;1.90;;;;;;;11.63;40.42;95788.47;4951448;28;20036;-67
2023/03/16 09:57:44;;;;;;;1.98;1.77;;;;;;;11.24;39.91;95781.53;4954410;28;20023;-67
2023/03/16 10:00:10;;;;;;;2.28;1.85;;;;;;;11.24;41.96;95784.16;4953804;28;20079;-68
2023/03/16 10:02:48;;;;;;;3.65;2.10;;;;;;;11.86;40.42;95777.53;4953405;28;20489;-67
2023/03/16 10:05:19;;;;;;;2.35;2.15;;;;;;;11.87;40.83;95774.72;4948189;28;20035;-67
2023/03/16 10:08:06;;;;;;;1.67;1.58;;;;;;;12.11;39.19;95776.00;4954006;28;20106;-67
2023/03/16 10:10:51;;;;;;;1.73;1.63;;;;;;;12.08;37.86;95776.28;4954109;28;20396;-68
2023/03/16 10:13:48;;;;;;;1.95;1.67;;;;;;;11.83;39.93;95769.91;4954981;28;20038;-67
2023/03/16 10:16:23;;;;;;;1.88;1.77;;;;;;;12.01;39.11;95770.78;4952952;28;20038;-67
2023/03/16 10:19:09;;;;;;;4.15;1.67;;;;;;;12.49;36.94;95762.66;4950451;28;20110;-67
2023/03/16 10:21:39;;;;;;;2.00;1.80;;;;;;;12.67;37.05;95770.56;4951405;28;20476;-67
2023/03/16 10:24:28;;;;;;;3.97;1.67;;;;;;;12.89;37.52;95769.22;4954524;28;20432;-67
2023/03/16 10:26:59;;;;;;;2.00;1.90;;;;;;;13.26;37.60;95771.78;4956184;28;20084;-68
2023/03/16 10:29:31;;;;;;;3.65;1.73;;;;;;;13.37;38.42;95773.31;4956955;28;20023;-67
2023/03/16 10:32:06;;;;;;;2.03;1.60;;;;;;;13.25;36.75;95764.84;4952278;28;20038;-68
2023/03/16 10:34:32;;;;;;;1.55;1.45;;;;;;;12.91;37.89;95755.88;4944473;28;20024;-68
2023/03/16 10:36:57;;;;;;;7.13;2.20;;;;;;;12.99;36.52;95755.09;4953291;28;20034;-68
2023/03/16 10:39:22;;;;;;;1.98;1.70;;;;;;;13.32;36.56;95750.00;4954260;28;20124;-67
2023/03/16 10:41:56;;;;;;;2.58;1.80;;;;;;;13.41;35.66;95750.84;4949634;28;20046;-67
2023/03/16 10:44:26;;;;;;;2.03;1.83;;;;;;;13.67;34.67;95750.84;4951536;28;20031;-67
2023/03/16 10:47:06;;;;;;;3.22;2.33;;;;;;;13.27;35.28;95752.28;4952819;28;20487;-67
2023/03/16 10:49:40;;;;;;;2.88;1.88;;;;;;;13.15;36.37;95749.09;4955392;28;20480;-67
2023/03/16 10:52:15;;;;;;;2.80;2.03;;;;;;;13.41;36.13;95754.34;4948919;28;20071;-67
2023/03/16 10:54:48;;;;;;;2.63;1.88;;;;;;;13.53;35.79;95754.94;4956529;28;20035;-67
2023/03/16 10:57:32;;;;;;;2.92;1.63;;;;;;;13.90;38.38;95758.19;4947109;28;20039;-67
2023/03/16 11:00:12;;;;;;;3.88;1.55;;;;;;;14.24;34.96;95754.59;4951742;28;20518;-67
2023/03/16 11:02:39;;;;;;;2.35;1.70;;;;;;;15.06;34.38;95758.28;4953147;28;20012;-66
2023/03/16 11:05:12;;;;;;;3.17;1.98;;;;;;;15.35;32.75;95756.06;4954405;28;20605;-68
2023/03/16 11:07:38;;;;;;;2.28;1.95;;;;;;;15.35;31.05;95750.78;4949165;28;20055;-67
2023/03/16 11:10:23;;;;;;;1.80;1.70;;;;;;;14.46;32.82;95747.03;4956898;28;20395;-67
2023/03/16 11:12:49;;;;;;;;;;;;;;;14.05;33.87;95750.44;4952618;28;20102;-67
2023/03/16 11:15:14;;;;;;;3.00;2.08;;;;;;;14.64;35.00;95744.22;4955975;28;20006;-67
2023/03/16 11:17:48;;;;;;;5.78;2.10;;;;;;;15.00;33.27;95748.38;4955524;28;20030;-67
2023/03/16 11:20:27;;;;;;;3.42;1.95;;;;;;;15.16;33.94;95750.16;4949793;28;20661;-67
2023/03/16 11:22:53;;;;;;;2.05;1.95;;;;;;;15.02;32.16;95747.19;4948132;28;20048;-67
2023/03/16 11:25:42;;;;;;;1.63;1.52;;;;;;;14.55;35.47;95745.19;4950625;28;20039;-67
2023/03/16 11:28:31;;;;;;;1.65;1.55;;;;;;;14.61;35.18;95748.03;4948903;28;20118;-67
2023/03/16 11:31:13;;;;;;;2.08;1.88;;;;;;;14.42;34.36;95748.34;4953644;28;20031;-67
2023/03/16 11:33:39;;;;;;;1.67;1.63;;;;;;;14.81;36.44;95745.06;4955257;28;20546;-66
2023/03/16 11:36:37;;;;;;;2.75;1.98;;;;;;;15.93;34.60;95743.44;4950469;28;20105;-67